sensor_id;sensor_type;location;lat;lon;timestamp;pressure;altitude;pressure_sealevel;temperature;humidity
18784;BME280;9520;50.954;6.968;2023-11-19T00:00:13;100508.63;;;18.00;64.20
18784;BME280;9520;50.954;6.968;2023-11-19T00:00:36;100519.22;;;18.02;64.42
18784;BME280;9520;50.954;6.968;2023-11-19T00:00:57;100516.63;;;18.00;64.38
18784;BME280;9520;50.954;6.968;2023-11-19T00:01:20;100510.78;;;17.92;64.64
18784;BME280;9520;50.954;6.968;2023-11-19T00:01:42;100518.56;;;17.97;64.68
18784;BME280;9520;50.954;6.968;2023-11-19T00:02:04;100514.09;;;17.97;64.81
18784;BME280;9520;50.954;6.968;2023-11-19T00:02:26;100520.06;;;18.02;64.92
18784;BME280;9520;50.954;6.968;2023-11-19T00:02:48;100515.81;;;17.98;64.77
18784;BME280;9520;50.954;6.968;2023-11-19T00:03:10;100522.03;;;17.99;64.83
18784;BME280;9520;50.954;6.968;2023-11-19T00:03:34;100520.38;;;17.96;64.79
18784;BME280;9520;50.954;6.968;2023-11-19T00:03:56;100518.00;;;17.90;65.11
18784;BME280;9520;50.954;6.968;2023-11-19T00:04:18;100512.50;;;17.93;65.20
18784;BME280;9520;50.954;6.968;2023-11-19T00:04:39;100505.59;;;17.89;65.24
18784;BME280;9520;50.954;6.968;2023-11-19T00:05:01;100507.88;;;17.97;65.42
18784;BME280;9520;50.954;6.968;2023-11-19T00:05:23;100505.22;;;17.97;65.42
18784;BME280;9520;50.954;6.968;2023-11-19T00:05:45;100506.97;;;17.98;65.26
18784;BME280;9520;50.954;6.968;2023-11-19T00:06:07;100505.16;;;17.98;65.42
18784;BME280;9520;50.954;6.968;2023-11-19T00:06:32;100499.66;;;18.01;65.31
18784;BME280;9520;50.954;6.968;2023-11-19T00:06:54;100498.78;;;18.01;65.27
18784;BME280;9520;50.954;6.968;2023-11-19T00:07:15;100497.94;;;18.00;65.30
18784;BME280;9520;50.954;6.968;2023-11-19T00:07:40;100508.47;;;18.03;65.48
18784;BME280;9520;50.954;6.968;2023-11-19T00:08:02;100503.06;;;18.05;65.39
18784;BME280;9520;50.954;6.968;2023-11-19T00:08:25;100510.19;;;18.04;65.50
18784;BME280;9520;50.954;6.968;2023-11-19T00:08:48;100501.56;;;17.99;65.28
18784;BME280;9520;50.954;6.968;2023-11-19T00:09:10;100495.69;;;17.91;65.67
18784;BME280;9520;50.954;6.968;2023-11-19T00:09:32;100503.28;;;18.00;65.37
18784;BME280;9520;50.954;6.968;2023-11-19T00:09:53;100501.78;;;17.95;65.38
18784;BME280;9520;50.954;6.968;2023-11-19T00:10:17;100501.47;;;18.01;65.69
18784;BME280;9520;50.954;6.968;2023-11-19T00:10:41;100499.81;;;17.98;65.57
18784;BME280;9520;50.954;6.968;2023-11-19T00:11:03;100508.47;;;18.03;65.60
18784;BME280;9520;50.954;6.968;2023-11-19T00:11:24;100502.19;;;18.04;65.68
18784;BME280;9520;50.954;6.968;2023-11-19T00:11:46;100488.13;;;18.01;65.44
18784;BME280;9520;50.954;6.968;2023-11-19T00:12:11;100499.44;;;18.06;65.33
18784;BME280;9520;50.954;6.968;2023-11-19T00:12:34;100465.41;;;17.92;65.29
18784;BME280;9520;50.954;6.968;2023-11-19T00:12:57;100487.13;;;18.03;65.30
18784;BME280;9520;50.954;6.968;2023-11-19T00:13:18;100495.75;;;18.08;65.26
18784;BME280;9520;50.954;6.968;2023-11-19T00:13:40;100491.28;;;18.09;65.11
18784;BME280;9520;50.954;6.968;2023-11-19T00:14:02;100469.59;;;17.98;65.16
18784;BME280;9520;50.954;6.968;2023-11-19T00:14:24;100489.50;;;18.09;65.14
18784;BME280;9520;50.954;6.968;2023-11-19T00:14:47;100492.00;;;18.12;65.15
18784;BME280;9520;50.954;6.968;2023-11-19T00:15:08;100479.69;;;18.10;65.28
18784;BME280;9520;50.954;6.968;2023-11-19T00:15:32;100487.53;;;18.13;65.26
18784;BME280;9520;50.954;6.968;2023-11-19T00:15:54;100480.31;;;18.15;65.36
18784;BME280;9520;50.954;6.968;2023-11-19T00:16:16;100486.44;;;18.17;65.24
18784;BME280;9520;50.954;6.968;2023-11-19T00:16:38;100478.47;;;18.16;65.25
18784;BME280;9520;50.954;6.968;2023-11-19T00:17:00;100476.63;;;18.18;65.40
18784;BME280;9520;50.954;6.968;2023-11-19T00:17:22;100480.31;;;18.15;65.09
18784;BME280;9520;50.954;6.968;2023-11-19T00:17:45;100473.88;;;18.19;65.25
18784;BME280;9520;50.954;6.968;2023-11-19T00:18:08;100474.75;;;18.20;65.28
18784;BME280;9520;50.954;6.968;2023-11-19T00:18:29;100473.78;;;18.21;65.37
18784;BME280;9520;50.954;6.968;2023-11-19T00:18:52;100474.66;;;18.21;65.30
18784;BME280;9520;50.954;6.968;2023-11-19T00:19:15;100474.59;;;18.23;65.30
18784;BME280;9520;50.954;6.968;2023-11-19T00:19:38;100471.97;;;18.21;65.15
18784;BME280;9520;50.954;6.968;2023-11-19T00:19:59;100472.06;;;18.20;65.11
18784;BME280;9520;50.954;6.968;2023-11-19T00:20:21;100473.00;;;18.19;65.03
18784;BME280;9520;50.954;6.968;2023-11-19T00:20:44;100479.22;;;18.19;64.93
18784;BME280;9520;50.954;6.968;2023-11-19T00:21:06;100482.75;;;18.20;65.17
18784;BME280;9520;50.954;6.968;2023-11-19T00:21:29;100477.31;;;18.21;64.93
18784;BME280;9520;50.954;6.968;2023-11-19T00:21:52;100465.78;;;18.21;64.97
18784;BME280;9520;50.954;6.968;2023-11-19T00:22:13;100473.78;;;18.21;64.90
18784;BME280;9520;50.954;6.968;2023-11-19T00:22:35;100463.28;;;18.18;64.96
18784;BME280;9520;50.954;6.968;2023-11-19T00:23:10;100466.75;;;18.20;65.05
18784;BME280;9520;50.954;6.968;2023-11-19T00:23:31;100471.03;;;18.22;65.33
18784;BME280;9520;50.954;6.968;2023-11-19T00:23:53;100465.63;;;18.24;65.23
18784;BME280;9520;50.954;6.968;2023-11-19T00:24:15;100470.13;;;18.23;65.09
18784;BME280;9520;50.954;6.968;2023-11-19T00:24:39;100470.19;;;18.22;64.65
18784;BME280;9520;50.954;6.968;2023-11-19T00:25:00;100467.44;;;18.23;64.92
18784;BME280;9520;50.954;6.968;2023-11-19T00:25:22;100470.19;;;18.22;65.24
18784;BME280;9520;50.954;6.968;2023-11-19T00:25:44;100466.56;;;18.23;65.05
18784;BME280;9520;50.954;6.968;2023-11-19T00:26:09;100469.25;;;18.23;65.13
18784;BME280;9520;50.954;6.968;2023-11-19T00:26:31;100465.63;;;18.24;64.97
18784;BME280;9520;50.954;6.968;2023-11-19T00:26:53;100465.63;;;18.24;64.93
18784;BME280;9520;50.954;6.968;2023-11-19T00:27:15;100465.56;;;18.25;64.91
18784;BME280;9520;50.954;6.968;2023-11-19T00:27:37;100464.72;;;18.25;64.81
18784;BME280;9520;50.954;6.968;2023-11-19T00:27:59;100466.41;;;18.26;64.88
18784;BME280;9520;50.954;6.968;2023-11-19T00:28:22;100470.81;;;18.27;64.97
18784;BME280;9520;50.954;6.968;2023-11-19T00:28:45;100465.47;;;18.27;65.00
18784;BME280;9520;50.954;6.968;2023-11-19T00:29:09;100457.47;;;18.27;64.54
18784;BME280;9520;50.954;6.968;2023-11-19T00:29:31;100461.94;;;18.26;64.87
18784;BME280;9520;50.954;6.968;2023-11-19T00:29:53;100460.13;;;18.27;64.77
18784;BME280;9520;50.954;6.968;2023-11-19T00:30:15;100450.50;;;18.24;64.93
18784;BME280;9520;50.954;6.968;2023-11-19T00:30:38;100447.88;;;18.23;65.03
18784;BME280;9520;50.954;6.968;2023-11-19T00:31:02;100461.81;;;18.29;65.00
18784;BME280;9520;50.954;6.968;2023-11-19T00:31:24;100452.06;;;18.28;65.03
18784;BME280;9520;50.954;6.968;2023-11-19T00:31:47;100450.25;;;18.29;64.97
18784;BME280;9520;50.954;6.968;2023-11-19T00:32:09;100445.78;;;18.29;64.71
18784;BME280;9520;50.954;6.968;2023-11-19T00:32:33;100445.78;;;18.29;64.60
18784;BME280;9520;50.954;6.968;2023-11-19T00:32:55;100447.53;;;18.30;64.92
18784;BME280;9520;50.954;6.968;2023-11-19T00:33:17;100443.13;;;18.29;64.90
18784;BME280;9520;50.954;6.968;2023-11-19T00:33:38;100439.56;;;18.29;64.81
18784;BME280;9520;50.954;6.968;2023-11-19T00:34:11;100444.91;;;18.29;64.81
18784;BME280;9520;50.954;6.968;2023-11-19T00:34:33;100433.53;;;18.25;64.75
18784;BME280;9520;50.954;6.968;2023-11-19T00:34:56;100436.03;;;18.28;64.81
18784;BME280;9520;50.954;6.968;2023-11-19T00:35:18;100442.25;;;18.29;65.12
18784;BME280;9520;50.954;6.968;2023-11-19T00:35:39;100443.00;;;18.31;65.08
18784;BME280;9520;50.954;6.968;2023-11-19T00:36:01;100435.97;;;18.30;65.11
18784;BME280;9520;50.954;6.968;2023-11-19T00:36:24;100436.72;;;18.32;65.11
18784;BME280;9520;50.954;6.968;2023-11-19T00:36:47;100435.97;;;18.30;65.20
18784;BME280;9520;50.954;6.968;2023-11-19T00:37:10;100436.72;;;18.32;65.13
18784;BME280;9520;50.954;6.968;2023-11-19T00:37:32;100437.59;;;18.32;65.33
18784;BME280;9520;50.954;6.968;2023-11-19T00:37:54;100442.88;;;18.34;65.26
18784;BME280;9520;50.954;6.968;2023-11-19T00:38:15;100447.34;;;18.33;65.18
18784;BME280;9520;50.954;6.968;2023-11-19T00:38:38;100446.41;;;18.34;65.25
18784;BME280;9520;50.954;6.968;2023-11-19T00:39:00;100446.41;;;18.34;65.27
18784;BME280;9520;50.954;6.968;2023-11-19T00:39:21;100447.28;;;18.35;65.36
18784;BME280;9520;50.954;6.968;2023-11-19T00:39:44;100450.72;;;18.37;65.36
18784;BME280;9520;50.954;6.968;2023-11-19T00:40:06;100442.72;;;18.37;65.36
18784;BME280;9520;50.954;6.968;2023-11-19T00:40:29;100454.25;;;18.37;65.16
18784;BME280;9520;50.954;6.968;2023-11-19T00:40:52;100450.31;;;18.27;65.25
18784;BME280;9520;50.954;6.968;2023-11-19T00:41:14;100447.03;;;18.22;65.22
18784;BME280;9520;50.954;6.968;2023-11-19T00:41:38;100450.00;;;18.16;65.45
18784;BME280;9520;50.954;6.968;2023-11-19T00:41:59;100447.25;;;18.18;65.71
18784;BME280;9520;50.954;6.968;2023-11-19T00:42:21;100455.09;;;18.21;65.67
18784;BME280;9520;50.954;6.968;2023-11-19T00:42:43;100459.44;;;18.23;65.74
18784;BME280;9520;50.954;6.968;2023-11-19T00:43:05;100455.91;;;18.23;65.51
18784;BME280;9520;50.954;6.968;2023-11-19T00:43:27;100451.25;;;18.26;65.57
18784;BME280;9520;50.954;6.968;2023-11-19T00:43:49;100453.00;;;18.27;65.71
18784;BME280;9520;50.954;6.968;2023-11-19T00:44:10;100456.47;;;18.29;65.69
18784;BME280;9520;50.954;6.968;2023-11-19T00:44:32;100456.38;;;18.31;65.66
18784;BME280;9520;50.954;6.968;2023-11-19T00:44:54;100462.66;;;18.30;65.55
18784;BME280;9520;50.954;6.968;2023-11-19T00:45:16;100459.03;;;18.31;65.67
18784;BME280;9520;50.954;6.968;2023-11-19T00:45:38;100455.53;;;18.30;65.64
18784;BME280;9520;50.954;6.968;2023-11-19T00:46:00;100456.47;;;18.29;65.70
18784;BME280;9520;50.954;6.968;2023-11-19T00:46:22;100456.47;;;18.29;65.63
18784;BME280;9520;50.954;6.968;2023-11-19T00:46:45;100458.28;;;18.29;65.75
18784;BME280;9520;50.954;6.968;2023-11-19T00:47:07;100458.28;;;18.29;65.48
18784;BME280;9520;50.954;6.968;2023-11-19T00:47:29;100458.28;;;18.29;65.45
18784;BME280;9520;50.954;6.968;2023-11-19T00:47:52;100452.84;;;18.30;65.43
18784;BME280;9520;50.954;6.968;2023-11-19T00:48:14;100449.31;;;18.30;65.55
18784;BME280;9520;50.954;6.968;2023-11-19T00:48:36;100452.94;;;18.29;65.46
18784;BME280;9520;50.954;6.968;2023-11-19T00:48:58;100452.00;;;18.30;65.59
18784;BME280;9520;50.954;6.968;2023-11-19T00:49:21;100452.94;;;18.29;65.53
18784;BME280;9520;50.954;6.968;2023-11-19T00:49:42;100453.69;;;18.31;65.41
18784;BME280;9520;50.954;6.968;2023-11-19T00:50:05;100457.16;;;18.33;65.59
18784;BME280;9520;50.954;6.968;2023-11-19T00:50:27;100450.94;;;18.32;65.46
18784;BME280;9520;50.954;6.968;2023-11-19T00:50:50;100457.34;;;18.30;65.32
18784;BME280;9520;50.954;6.968;2023-11-19T00:51:12;100456.47;;;18.29;65.48
18784;BME280;9520;50.954;6.968;2023-11-19T00:51:34;100454.56;;;18.31;65.68
18784;BME280;9520;50.954;6.968;2023-11-19T00:51:56;100456.38;;;18.31;65.75
18784;BME280;9520;50.954;6.968;2023-11-19T00:52:19;100454.56;;;18.31;65.78
18784;BME280;9520;50.954;6.968;2023-11-19T00:52:41;100451.81;;;18.33;66.01
18784;BME280;9520;50.954;6.968;2023-11-19T00:53:03;100445.63;;;18.32;66.10
18784;BME280;9520;50.954;6.968;2023-11-19T00:53:26;100452.63;;;18.35;65.83
18784;BME280;9520;50.954;6.968;2023-11-19T00:53:47;100453.47;;;18.35;65.78
18784;BME280;9520;50.954;6.968;2023-11-19T00:54:09;100449.84;;;18.36;65.59
18784;BME280;9520;50.954;6.968;2023-11-19T00:54:31;100455.13;;;18.38;65.70
18784;BME280;9520;50.954;6.968;2023-11-19T00:54:52;100457.78;;;18.38;65.63
18784;BME280;9520;50.954;6.968;2023-11-19T00:55:15;100463.06;;;18.39;65.69
18784;BME280;9520;50.954;6.968;2023-11-19T00:55:38;100456.75;;;18.40;65.68
18784;BME280;9520;50.954;6.968;2023-11-19T00:56:08;100468.25;;;18.42;65.43
18784;BME280;9520;50.954;6.968;2023-11-19T00:56:29;100460.41;;;18.39;65.29
18784;BME280;9520;50.954;6.968;2023-11-19T00:56:51;100467.38;;;18.42;65.17
18784;BME280;9520;50.954;6.968;2023-11-19T00:57:13;100471.84;;;18.41;65.41
18784;BME280;9520;50.954;6.968;2023-11-19T00:57:36;100472.78;;;18.40;65.55
18784;BME280;9520;50.954;6.968;2023-11-19T00:57:58;100478.06;;;18.42;65.58
18784;BME280;9520;50.954;6.968;2023-11-19T00:58:19;100474.44;;;18.43;65.53
18784;BME280;9520;50.954;6.968;2023-11-19T00:58:41;100473.50;;;18.44;65.66
18784;BME280;9520;50.954;6.968;2023-11-19T00:59:03;100471.72;;;18.44;65.67
18784;BME280;9520;50.954;6.968;2023-11-19T00:59:26;100473.50;;;18.44;65.25
18784;BME280;9520;50.954;6.968;2023-11-19T00:59:48;100477.91;;;18.45;65.29
18784;BME280;9520;50.954;6.968;2023-11-19T01:00:10;100472.56;;;18.45;65.24
18784;BME280;9520;50.954;6.968;2023-11-19T01:00:41;100466.28;;;18.46;65.18
18784;BME280;9520;50.954;6.968;2023-11-19T01:01:04;100469.81;;;18.46;65.36
18784;BME280;9520;50.954;6.968;2023-11-19T01:01:27;100462.59;;;18.48;65.24
18784;BME280;9520;50.954;6.968;2023-11-19T01:01:49;100467.00;;;18.49;65.19
18784;BME280;9520;50.954;6.968;2023-11-19T01:02:12;100465.09;;;18.51;65.35
18784;BME280;9520;50.954;6.968;2023-11-19T01:02:35;100458.88;;;18.51;65.33
18784;BME280;9520;50.954;6.968;2023-11-19T01:02:57;100464.16;;;18.52;65.43
18784;BME280;9520;50.954;6.968;2023-11-19T01:03:21;100457.91;;;18.53;65.48
18784;BME280;9520;50.954;6.968;2023-11-19T01:03:43;100453.47;;;18.52;65.43
18784;BME280;9520;50.954;6.968;2023-11-19T01:04:05;100448.09;;;18.54;65.55
18784;BME280;9520;50.954;6.968;2023-11-19T01:04:27;100451.63;;;18.54;65.54
18784;BME280;9520;50.954;6.968;2023-11-19T01:04:49;100453.44;;;18.54;65.55
18784;BME280;9520;50.954;6.968;2023-11-19T01:05:11;100448.88;;;18.56;65.56
18784;BME280;9520;50.954;6.968;2023-11-19T01:05:36;100448.97;;;18.54;65.55
18784;BME280;9520;50.954;6.968;2023-11-19T01:05:58;100453.28;;;18.57;65.62
18784;BME280;9520;50.954;6.968;2023-11-19T01:06:27;100456.75;;;18.59;65.51
18784;BME280;9520;50.954;6.968;2023-11-19T01:06:49;100459.41;;;18.59;65.55
18784;BME280;9520;50.954;6.968;2023-11-19T01:07:11;100446.06;;;18.59;65.50
18784;BME280;9520;50.954;6.968;2023-11-19T01:07:36;100461.97;;;18.61;65.46
18784;BME280;9520;50.954;6.968;2023-11-19T01:07:59;100462.94;;;18.60;65.14
18784;BME280;9520;50.954;6.968;2023-11-19T01:08:21;100459.31;;;18.61;65.24
18784;BME280;9520;50.954;6.968;2023-11-19T01:08:43;100448.56;;;18.62;65.28
18784;BME280;9520;50.954;6.968;2023-11-19T01:09:05;100448.72;;;18.59;65.21
18784;BME280;9520;50.954;6.968;2023-11-19T01:09:27;100449.50;;;18.61;65.25
18784;BME280;9520;50.954;6.968;2023-11-19T01:09:49;100445.00;;;18.62;65.37
18784;BME280;9520;50.954;6.968;2023-11-19T01:10:12;100446.81;;;18.61;65.31
18784;BME280;9520;50.954;6.968;2023-11-19T01:10:33;100449.50;;;18.61;65.31
18784;BME280;9520;50.954;6.968;2023-11-19T01:10:55;100446.06;;;18.59;65.34
18784;BME280;9520;50.954;6.968;2023-11-19T01:11:20;100450.28;;;18.63;65.49
18784;BME280;9520;50.954;6.968;2023-11-19T01:11:42;100453.81;;;18.64;65.38
18784;BME280;9520;50.954;6.968;2023-11-19T01:12:06;100445.81;;;18.64;65.26
18784;BME280;9520;50.954;6.968;2023-11-19T01:12:28;100437.81;;;18.64;65.30
18784;BME280;9520;50.954;6.968;2023-11-19T01:12:50;100446.69;;;18.64;65.15
18784;BME280;9520;50.954;6.968;2023-11-19T01:13:12;100451.91;;;18.66;65.13
18784;BME280;9520;50.954;6.968;2023-11-19T01:13:34;100446.59;;;18.66;65.05
18784;BME280;9520;50.954;6.968;2023-11-19T01:13:56;100446.50;;;18.67;64.93
18784;BME280;9520;50.954;6.968;2023-11-19T01:14:18;100443.03;;;18.65;65.07
18784;BME280;9520;50.954;6.968;2023-11-19T01:14:39;100448.25;;;18.68;65.12
18784;BME280;9520;50.954;6.968;2023-11-19T01:15:01;100450.91;;;18.68;65.05
18784;BME280;9520;50.954;6.968;2023-11-19T01:15:23;100442.91;;;18.68;65.23
18784;BME280;9520;50.954;6.968;2023-11-19T01:15:46;100446.44;;;18.69;65.24
18784;BME280;9520;50.954;6.968;2023-11-19T01:16:09;100442.91;;;18.68;65.20
18784;BME280;9520;50.954;6.968;2023-11-19T01:16:31;100436.94;;;18.63;65.35
18784;BME280;9520;50.954;6.968;2023-11-19T01:16:53;100440.16;;;18.70;65.09
18784;BME280;9520;50.954;6.968;2023-11-19T01:17:15;100427.97;;;18.64;65.38
18784;BME280;9520;50.954;6.968;2023-11-19T01:17:39;100452.91;;;18.65;65.37
18784;BME280;9520;50.954;6.968;2023-11-19T01:18:14;100458.13;;;18.66;65.33
18784;BME280;9520;50.954;6.968;2023-11-19T01:18:35;100452.97;;;18.63;65.41
18784;BME280;9520;50.954;6.968;2023-11-19T01:18:57;100449.41;;;18.63;65.38
18784;BME280;9520;50.954;6.968;2023-11-19T01:19:36;100452.16;;;18.61;65.72
18784;BME280;9520;50.954;6.968;2023-11-19T01:19:58;100453.03;;;18.62;65.93
18784;BME280;9520;50.954;6.968;2023-11-19T01:20:20;100459.25;;;18.62;66.05
18784;BME280;9520;50.954;6.968;2023-11-19T01:20:43;100454.13;;;18.58;65.89
18784;BME280;9520;50.954;6.968;2023-11-19T01:21:05;100442.66;;;18.55;65.88
18784;BME280;9520;50.954;6.968;2023-11-19T01:21:26;100455.00;;;18.58;66.13
18784;BME280;9520;50.954;6.968;2023-11-19T01:21:48;100459.41;;;18.59;66.13
18784;BME280;9520;50.954;6.968;2023-11-19T01:22:11;100456.63;;;18.61;66.21
18784;BME280;9520;50.954;6.968;2023-11-19T01:22:32;100456.75;;;18.59;66.23
18784;BME280;9520;50.954;6.968;2023-11-19T01:22:55;100455.94;;;18.57;66.47
18784;BME280;9520;50.954;6.968;2023-11-19T01:23:17;100455.94;;;18.57;66.43
18784;BME280;9520;50.954;6.968;2023-11-19T01:23:39;100451.63;;;18.54;66.69
18784;BME280;9520;50.954;6.968;2023-11-19T01:24:02;100453.53;;;18.51;66.54
18784;BME280;9520;50.954;6.968;2023-11-19T01:24:25;100455.94;;;18.57;66.73
18784;BME280;9520;50.954;6.968;2023-11-19T01:24:50;100449.06;;;18.51;66.63
18784;BME280;9520;50.954;6.968;2023-11-19T01:25:13;100462.09;;;18.59;66.41
18784;BME280;9520;50.954;6.968;2023-11-19T01:25:35;100459.31;;;18.61;66.10
18784;BME280;9520;50.954;6.968;2023-11-19T01:26:00;100457.94;;;18.52;66.30
18784;BME280;9520;50.954;6.968;2023-11-19T01:26:21;100463.59;;;18.46;66.58
18784;BME280;9520;50.954;6.968;2023-11-19T01:26:43;100462.91;;;18.42;67.01
18784;BME280;9520;50.954;6.968;2023-11-19T01:27:07;100462.72;;;18.45;67.05
18784;BME280;9520;50.954;6.968;2023-11-19T01:27:29;100460.94;;;18.46;67.09
18784;BME280;9520;50.954;6.968;2023-11-19T01:27:51;100464.41;;;18.48;67.22
18784;BME280;9520;50.954;6.968;2023-11-19T01:28:14;100461.72;;;18.48;67.34
18784;BME280;9520;50.954;6.968;2023-11-19T01:28:37;100464.34;;;18.49;67.19
18784;BME280;9520;50.954;6.968;2023-11-19T01:29:13;100449.31;;;18.47;67.18
18784;BME280;9520;50.954;6.968;2023-11-19T01:29:35;100457.38;;;18.45;66.70
18784;BME280;9520;50.954;6.968;2023-11-19T01:29:57;100464.16;;;18.52;66.71
18784;BME280;9520;50.954;6.968;2023-11-19T01:30:20;100451.03;;;18.48;66.56
18784;BME280;9520;50.954;6.968;2023-11-19T01:30:43;100459.69;;;18.53;66.36
18784;BME280;9520;50.954;6.968;2023-11-19T01:31:05;100457.09;;;18.51;66.36
18784;BME280;9520;50.954;6.968;2023-11-19T01:31:27;100455.28;;;18.52;66.47
18784;BME280;9520;50.954;6.968;2023-11-19T01:31:48;100455.25;;;18.53;66.26
18784;BME280;9520;50.954;6.968;2023-11-19T01:32:13;100465.81;;;18.55;66.43
18784;BME280;9520;50.954;6.968;2023-11-19T01:32:36;100460.59;;;18.53;66.33
18784;BME280;9520;50.954;6.968;2023-11-19T01:32:59;100456.16;;;18.52;66.68
18784;BME280;9520;50.954;6.968;2023-11-19T01:33:20;100454.72;;;18.45;67.00
18784;BME280;9520;50.954;6.968;2023-11-19T01:34:25;100448.13;;;18.52;67.60
18784;BME280;9520;50.954;6.968;2023-11-19T01:34:48;100447.25;;;18.52;67.54
18784;BME280;9520;50.954;6.968;2023-11-19T01:35:09;100455.28;;;18.52;67.38
18784;BME280;9520;50.954;6.968;2023-11-19T01:35:31;100452.63;;;18.52;67.53
18784;BME280;9520;50.954;6.968;2023-11-19T01:35:53;100452.63;;;18.52;67.55
18784;BME280;9520;50.954;6.968;2023-11-19T01:36:15;100452.47;;;18.55;67.46
18784;BME280;9520;50.954;6.968;2023-11-19T01:36:37;100459.66;;;18.54;67.41
18784;BME280;9520;50.954;6.968;2023-11-19T01:37:00;100444.47;;;18.55;67.52
18784;BME280;9520;50.954;6.968;2023-11-19T01:37:22;100443.66;;;18.53;67.46
18784;BME280;9520;50.954;6.968;2023-11-19T01:37:44;100456.16;;;18.52;67.50
18784;BME280;9520;50.954;6.968;2023-11-19T01:38:11;100454.41;;;18.51;67.63
18784;BME280;9520;50.954;6.968;2023-11-19T01:38:34;100452.63;;;18.52;67.67
18784;BME280;9520;50.954;6.968;2023-11-19T01:38:57;100449.91;;;18.53;67.88
18784;BME280;9520;50.954;6.968;2023-11-19T01:39:21;100451.63;;;18.54;67.80
18784;BME280;9520;50.954;6.968;2023-11-19T01:39:44;100443.03;;;18.48;67.86
18784;BME280;9520;50.954;6.968;2023-11-19T01:40:21;100454.34;;;18.53;67.41
18784;BME280;9520;50.954;6.968;2023-11-19T01:40:45;100457.94;;;18.52;67.16
18784;BME280;9520;50.954;6.968;2023-11-19T01:41:08;100455.16;;;18.55;67.16
18784;BME280;9520;50.954;6.968;2023-11-19T01:41:34;100464.03;;;18.55;67.40
18784;BME280;9520;50.954;6.968;2023-11-19T01:41:59;100462.22;;;18.56;67.65
18784;BME280;9520;50.954;6.968;2023-11-19T01:42:21;100451.84;;;18.50;67.93
18784;BME280;9520;50.954;6.968;2023-11-19T01:42:47;100448.22;;;18.51;68.01
18784;BME280;9520;50.954;6.968;2023-11-19T01:43:10;100455.88;;;18.59;68.13
18784;BME280;9520;50.954;6.968;2023-11-19T01:43:34;100452.56;;;18.53;68.08
18784;BME280;9520;50.954;6.968;2023-11-19T01:43:55;100463.78;;;18.60;67.74
18784;BME280;9520;50.954;6.968;2023-11-19T01:44:17;100461.97;;;18.61;67.65
18784;BME280;9520;50.954;6.968;2023-11-19T01:44:40;100458.38;;;18.62;67.68
18784;BME280;9520;50.954;6.968;2023-11-19T01:45:02;100450.44;;;18.60;67.58
18784;BME280;9520;50.954;6.968;2023-11-19T01:45:27;100451.28;;;18.61;67.57
18784;BME280;9520;50.954;6.968;2023-11-19T01:45:50;100452.97;;;18.63;67.60
18784;BME280;9520;50.954;6.968;2023-11-19T01:46:13;100460.91;;;18.65;67.38
18784;BME280;9520;50.954;6.968;2023-11-19T01:46:35;100460.09;;;18.63;67.24
18784;BME280;9520;50.954;6.968;2023-11-19T01:46:58;100433.78;;;18.55;66.78
18784;BME280;9520;50.954;6.968;2023-11-19T01:47:20;100452.09;;;18.63;66.62
18784;BME280;9520;50.954;6.968;2023-11-19T01:47:41;100442.28;;;18.63;66.64
18784;BME280;9520;50.954;6.968;2023-11-19T01:48:03;100444.09;;;18.63;67.04
18784;BME280;9520;50.954;6.968;2023-11-19T01:48:26;100437.81;;;18.64;67.17
18784;BME280;9520;50.954;6.968;2023-11-19T01:48:47;100440.38;;;18.65;67.38
18784;BME280;9520;50.954;6.968;2023-11-19T01:49:11;100445.81;;;18.64;67.85
18784;BME280;9520;50.954;6.968;2023-11-19T01:49:33;100442.28;;;18.63;67.87
18784;BME280;9520;50.954;6.968;2023-11-19T01:49:56;100444.00;;;18.64;67.79
18784;BME280;9520;50.954;6.968;2023-11-19T01:50:18;100443.03;;;18.65;67.58
18784;BME280;9520;50.954;6.968;2023-11-19T01:50:41;100436.88;;;18.65;67.40
18784;BME280;9520;50.954;6.968;2023-11-19T01:51:04;100437.69;;;18.65;67.28
18784;BME280;9520;50.954;6.968;2023-11-19T01:51:27;100439.44;;;18.66;67.04
18784;BME280;9520;50.954;6.968;2023-11-19T01:51:49;100440.31;;;18.67;66.88
18784;BME280;9520;50.954;6.968;2023-11-19T01:52:11;100436.00;;;18.64;66.70
18784;BME280;9520;50.954;6.968;2023-11-19T01:52:33;100435.91;;;18.66;66.52
18784;BME280;9520;50.954;6.968;2023-11-19T01:52:57;100442.09;;;18.66;66.39
18784;BME280;9520;50.954;6.968;2023-11-19T01:53:20;100439.44;;;18.66;66.13
18784;BME280;9520;50.954;6.968;2023-11-19T01:53:43;100436.75;;;18.66;66.34
18784;BME280;9520;50.954;6.968;2023-11-19T01:54:05;100437.63;;;18.67;66.15
18784;BME280;9520;50.954;6.968;2023-11-19T01:54:28;100437.88;;;18.62;66.25
18784;BME280;9520;50.954;6.968;2023-11-19T01:54:51;100431.66;;;18.62;65.83
18784;BME280;9520;50.954;6.968;2023-11-19T01:55:14;100440.59;;;18.61;66.29
18784;BME280;9520;50.954;6.968;2023-11-19T01:55:36;100437.00;;;18.62;66.81
18784;BME280;9520;50.954;6.968;2023-11-19T01:55:58;100450.44;;;18.60;67.15
18784;BME280;9520;50.954;6.968;2023-11-19T01:56:21;100451.28;;;18.61;67.21
18784;BME280;9520;50.954;6.968;2023-11-19T01:56:43;100443.38;;;18.59;67.73
18784;BME280;9520;50.954;6.968;2023-11-19T01:57:05;100450.34;;;18.62;67.85
18784;BME280;9520;50.954;6.968;2023-11-19T01:57:27;100444.09;;;18.63;68.77
18784;BME280;9520;50.954;6.968;2023-11-19T01:57:49;100441.34;;;18.64;68.41
18784;BME280;9520;50.954;6.968;2023-11-19T01:58:12;100445.81;;;18.64;68.42
18784;BME280;9520;50.954;6.968;2023-11-19T01:58:36;100440.59;;;18.61;68.89
18784;BME280;9520;50.954;6.968;2023-11-19T01:58:58;100428.53;;;18.53;69.34
18784;BME280;9520;50.954;6.968;2023-11-19T01:59:20;100436.00;;;18.64;69.65
18784;BME280;9520;50.954;6.968;2023-11-19T01:59:48;100437.69;;;18.65;69.47
18784;BME280;9520;50.954;6.968;2023-11-19T02:00:12;100435.66;;;18.70;69.62
18784;BME280;9520;50.954;6.968;2023-11-19T02:00:36;100445.56;;;18.68;69.78
18784;BME280;9520;50.954;6.968;2023-11-19T02:00:58;100444.75;;;18.49;70.04
18784;BME280;9520;50.954;6.968;2023-11-19T02:01:20;100434.38;;;18.43;70.82